sensor_id;sensor_type;location;lat;lon;timestamp;P1;durP1;ratioP1;P2;durP2;ratioP2
32329;SDS011;18807;52.434;13.238;2022-08-21T00:07:30;5.90;;;5.40;;
32329;SDS011;18807;52.434;13.238;2022-08-21T00:15:06;7.22;;;5.70;;
32329;SDS011;18807;52.434;13.238;2022-08-21T00:22:44;6.50;;;5.75;;
32329;SDS011;18807;52.434;13.238;2022-08-21T00:30:19;6.05;;;5.45;;
32329;SDS011;18807;52.434;13.238;2022-08-21T00:37:56;7.47;;;6.65;;
32329;SDS011;18807;52.434;13.238;2022-08-21T00:45:31;6.80;;;6.10;;
32329;SDS011;18807;52.434;13.238;2022-08-21T00:53:07;9.10;;;7.22;;
32329;SDS011;18807;52.434;13.238;2022-08-21T01:00:45;6.38;;;5.65;;
32329;SDS011;18807;52.434;13.238;2022-08-21T01:08:22;8.48;;;6.35;;
32329;SDS011;18807;52.434;13.238;2022-08-21T01:15:58;6.57;;;5.80;;
32329;SDS011;18807;52.434;13.238;2022-08-21T01:23:37;6.45;;;5.85;;
32329;SDS011;18807;52.434;13.238;2022-08-21T01:31:13;6.95;;;5.55;;
32329;SDS011;18807;52.434;13.238;2022-08-21T01:38:56;6.68;;;5.97;;
32329;SDS011;18807;52.434;13.238;2022-08-21T01:46:31;6.22;;;5.63;;
32329;SDS011;18807;52.434;13.238;2022-08-21T01:54:06;6.47;;;5.60;;
32329;SDS011;18807;52.434;13.238;2022-08-21T02:01:40;6.32;;;5.72;;
32329;SDS011;18807;52.434;13.238;2022-08-21T02:09:16;6.27;;;4.93;;
32329;SDS011;18807;52.434;13.238;2022-08-21T02:16:49;6.25;;;5.20;;
32329;SDS011;18807;52.434;13.238;2022-08-21T02:24:38;7.78;;;5.03;;
32329;SDS011;18807;52.434;13.238;2022-08-21T02:32:26;10.13;;;5.15;;
32329;SDS011;18807;52.434;13.238;2022-08-21T02:40:02;5.30;;;4.13;;
32329;SDS011;18807;52.434;13.238;2022-08-21T02:47:37;5.40;;;4.43;;
32329;SDS011;18807;52.434;13.238;2022-08-21T02:55:12;4.60;;;4.15;;
32329;SDS011;18807;52.434;13.238;2022-08-21T03:02:46;4.20;;;3.78;;
32329;SDS011;18807;52.434;13.238;2022-08-21T03:10:21;4.10;;;3.80;;
32329;SDS011;18807;52.434;13.238;2022-08-21T03:17:55;5.93;;;4.60;;
32329;SDS011;18807;52.434;13.238;2022-08-21T03:25:31;5.50;;;3.70;;
32329;SDS011;18807;52.434;13.238;2022-08-21T03:33:12;6.57;;;4.13;;
32329;SDS011;18807;52.434;13.238;2022-08-21T03:40:48;6.38;;;4.40;;
32329;SDS011;18807;52.434;13.238;2022-08-21T03:48:22;4.60;;;3.92;;
32329;SDS011;18807;52.434;13.238;2022-08-21T03:55:58;5.50;;;3.90;;
32329;SDS011;18807;52.434;13.238;2022-08-21T04:03:32;4.47;;;3.38;;
32329;SDS011;18807;52.434;13.238;2022-08-21T04:11:09;5.90;;;3.30;;
32329;SDS011;18807;52.434;13.238;2022-08-21T04:18:43;4.13;;;3.60;;
32329;SDS011;18807;52.434;13.238;2022-08-21T04:26:18;5.63;;;4.13;;
32329;SDS011;18807;52.434;13.238;2022-08-21T04:33:52;6.28;;;3.63;;
32329;SDS011;18807;52.434;13.238;2022-08-21T04:41:28;4.13;;;3.42;;
32329;SDS011;18807;52.434;13.238;2022-08-21T04:49:01;3.92;;;2.83;;
32329;SDS011;18807;52.434;13.238;2022-08-21T04:56:41;5.88;;;3.10;;
32329;SDS011;18807;52.434;13.238;2022-08-21T05:04:18;4.78;;;2.85;;
32329;SDS011;18807;52.434;13.238;2022-08-21T05:11:57;6.13;;;3.30;;
32329;SDS011;18807;52.434;13.238;2022-08-21T05:19:31;3.67;;;3.38;;
32329;SDS011;18807;52.434;13.238;2022-08-21T05:27:06;3.53;;;3.10;;
32329;SDS011;18807;52.434;13.238;2022-08-21T05:34:40;6.65;;;2.97;;
32329;SDS011;18807;52.434;13.238;2022-08-21T05:42:15;3.22;;;2.88;;
32329;SDS011;18807;52.434;13.238;2022-08-21T05:49:49;4.15;;;3.03;;
32329;SDS011;18807;52.434;13.238;2022-08-21T05:57:24;5.07;;;2.20;;
32329;SDS011;18807;52.434;13.238;2022-08-21T06:04:58;4.18;;;2.85;;
32329;SDS011;18807;52.434;13.238;2022-08-21T06:12:33;5.15;;;3.10;;
32329;SDS011;18807;52.434;13.238;2022-08-21T06:20:11;3.08;;;2.50;;
32329;SDS011;18807;52.434;13.238;2022-08-21T06:27:46;3.33;;;2.40;;
32329;SDS011;18807;52.434;13.238;2022-08-21T06:35:20;8.55;;;3.97;;
32329;SDS011;18807;52.434;13.238;2022-08-21T06:42:55;4.00;;;2.33;;
32329;SDS011;18807;52.434;13.238;2022-08-21T06:50:32;5.88;;;2.70;;
32329;SDS011;18807;52.434;13.238;2022-08-21T06:58:08;3.50;;;2.58;;
32329;SDS011;18807;52.434;13.238;2022-08-21T07:05:43;7.10;;;2.88;;
32329;SDS011;18807;52.434;13.238;2022-08-21T07:13:18;6.47;;;2.95;;
32329;SDS011;18807;52.434;13.238;2022-08-21T07:20:52;4.07;;;2.42;;
32329;SDS011;18807;52.434;13.238;2022-08-21T07:28:27;6.47;;;2.70;;
32329;SDS011;18807;52.434;13.238;2022-08-21T07:36:01;4.25;;;2.08;;
32329;SDS011;18807;52.434;13.238;2022-08-21T07:43:37;6.72;;;1.98;;
32329;SDS011;18807;52.434;13.238;2022-08-21T07:51:17;3.95;;;1.90;;
32329;SDS011;18807;52.434;13.238;2022-08-21T07:58:55;5.05;;;1.90;;
32329;SDS011;18807;52.434;13.238;2022-08-21T08:06:30;8.90;;;2.97;;
32329;SDS011;18807;52.434;13.238;2022-08-21T08:14:05;2.37;;;1.80;;
32329;SDS011;18807;52.434;13.238;2022-08-21T08:21:39;4.45;;;1.50;;
32329;SDS011;18807;52.434;13.238;2022-08-21T08:29:14;1.85;;;1.25;;
32329;SDS011;18807;52.434;13.238;2022-08-21T08:36:48;4.68;;;1.73;;
32329;SDS011;18807;52.434;13.238;2022-08-21T08:44:24;5.10;;;2.17;;
32329;SDS011;18807;52.434;13.238;2022-08-21T08:52:02;7.70;;;2.17;;
32329;SDS011;18807;52.434;13.238;2022-08-21T08:59:42;7.03;;;2.00;;
32329;SDS011;18807;52.434;13.238;2022-08-21T09:07:20;5.53;;;2.50;;
32329;SDS011;18807;52.434;13.238;2022-08-21T09:15:09;3.97;;;1.80;;
32329;SDS011;18807;52.434;13.238;2022-08-21T09:22:53;6.22;;;1.88;;
32329;SDS011;18807;52.434;13.238;2022-08-21T09:30:43;5.13;;;1.92;;
32329;SDS011;18807;52.434;13.238;2022-08-21T09:38:24;8.07;;;2.15;;
32329;SDS011;18807;52.434;13.238;2022-08-21T09:46:03;7.00;;;1.75;;
32329;SDS011;18807;52.434;13.238;2022-08-21T09:53:43;2.92;;;1.50;;
32329;SDS011;18807;52.434;13.238;2022-08-21T10:01:22;3.55;;;1.85;;
32329;SDS011;18807;52.434;13.238;2022-08-21T10:09:03;3.95;;;1.55;;
32329;SDS011;18807;52.434;13.238;2022-08-21T10:16:41;5.25;;;1.95;;
32329;SDS011;18807;52.434;13.238;2022-08-21T10:24:28;5.22;;;1.52;;
32329;SDS011;18807;52.434;13.238;2022-08-21T10:32:10;3.47;;;1.42;;
32329;SDS011;18807;52.434;13.238;2022-08-21T10:40:02;2.30;;;1.30;;
32329;SDS011;18807;52.434;13.238;2022-08-21T10:47:48;5.53;;;1.58;;
32329;SDS011;18807;52.434;13.238;2022-08-21T10:55:31;3.10;;;2.03;;
32329;SDS011;18807;52.434;13.238;2022-08-21T11:03:10;3.30;;;1.30;;
32329;SDS011;18807;52.434;13.238;2022-08-21T11:10:48;4.63;;;1.20;;
32329;SDS011;18807;52.434;13.238;2022-08-21T11:18:34;4.13;;;1.73;;
32329;SDS011;18807;52.434;13.238;2022-08-21T11:26:13;4.28;;;1.40;;
32329;SDS011;18807;52.434;13.238;2022-08-21T11:33:56;3.15;;;1.30;;
32329;SDS011;18807;52.434;13.238;2022-08-21T11:41:40;2.28;;;1.25;;
32329;SDS011;18807;52.434;13.238;2022-08-21T11:49:26;5.90;;;1.83;;
32329;SDS011;18807;52.434;13.238;2022-08-21T11:57:12;3.80;;;1.30;;
32329;SDS011;18807;52.434;13.238;2022-08-21T12:05:07;3.83;;;1.85;;
32329;SDS011;18807;52.434;13.238;2022-08-21T12:12:44;9.63;;;5.45;;
32329;SDS011;18807;52.434;13.238;2022-08-21T12:20:25;4.03;;;3.10;;
32329;SDS011;18807;52.434;13.238;2022-08-21T12:28:22;6.10;;;2.42;;
32329;SDS011;18807;52.434;13.238;2022-08-21T12:36:03;4.10;;;1.60;;
32329;SDS011;18807;52.434;13.238;2022-08-21T12:43:41;5.03;;;2.10;;
32329;SDS011;18807;52.434;13.238;2022-08-21T12:51:22;5.60;;;2.00;;
32329;SDS011;18807;52.434;13.238;2022-08-21T12:59:00;3.88;;;1.90;;
32329;SDS011;18807;52.434;13.238;2022-08-21T13:06:38;5.05;;;2.45;;
32329;SDS011;18807;52.434;13.238;2022-08-21T13:14:16;6.03;;;3.65;;
32329;SDS011;18807;52.434;13.238;2022-08-21T13:21:59;3.63;;;2.90;;
32329;SDS011;18807;52.434;13.238;2022-08-21T13:30:01;6.63;;;2.15;;
32329;SDS011;18807;52.434;13.238;2022-08-21T13:37:39;5.20;;;2.10;;
32329;SDS011;18807;52.434;13.238;2022-08-21T13:45:17;5.40;;;2.03;;
32329;SDS011;18807;52.434;13.238;2022-08-21T13:53:01;5.80;;;1.88;;
32329;SDS011;18807;52.434;13.238;2022-08-21T14:00:43;3.95;;;2.25;;
32329;SDS011;18807;52.434;13.238;2022-08-21T14:08:23;3.45;;;1.80;;
32329;SDS011;18807;52.434;13.238;2022-08-21T14:16:08;4.25;;;2.00;;
32329;SDS011;18807;52.434;13.238;2022-08-21T14:23:46;4.70;;;2.17;;
32329;SDS011;18807;52.434;13.238;2022-08-21T14:31:21;5.47;;;2.42;;
32329;SDS011;18807;52.434;13.238;2022-08-21T14:39:03;4.00;;;2.05;;
32329;SDS011;18807;52.434;13.238;2022-08-21T14:46:37;4.07;;;1.90;;
32329;SDS011;18807;52.434;13.238;2022-08-21T14:54:29;6.15;;;2.38;;
32329;SDS011;18807;52.434;13.238;2022-08-21T15:02:04;2.70;;;1.95;;
32329;SDS011;18807;52.434;13.238;2022-08-21T15:09:40;3.50;;;1.70;;
32329;SDS011;18807;52.434;13.238;2022-08-21T15:17:14;4.32;;;2.47;;
32329;SDS011;18807;52.434;13.238;2022-08-21T15:24:50;7.63;;;3.50;;
32329;SDS011;18807;52.434;13.238;2022-08-21T15:32:24;4.97;;;2.13;;
32329;SDS011;18807;52.434;13.238;2022-08-21T15:40:03;9.00;;;2.63;;
32329;SDS011;18807;52.434;13.238;2022-08-21T15:47:38;3.97;;;1.98;;
32329;SDS011;18807;52.434;13.238;2022-08-21T15:55:19;3.42;;;2.25;;
32329;SDS011;18807;52.434;13.238;2022-08-21T16:02:53;3.30;;;1.83;;
32329;SDS011;18807;52.434;13.238;2022-08-21T16:10:31;5.00;;;2.05;;
32329;SDS011;18807;52.434;13.238;2022-08-21T16:18:07;8.32;;;3.28;;
32329;SDS011;18807;52.434;13.238;2022-08-21T16:25:44;3.28;;;2.55;;
32329;SDS011;18807;52.434;13.238;2022-08-21T16:33:20;6.47;;;3.10;;
32329;SDS011;18807;52.434;13.238;2022-08-21T16:40:57;3.97;;;2.25;;
32329;SDS011;18807;52.434;13.238;2022-08-21T16:48:32;3.63;;;2.55;;
32329;SDS011;18807;52.434;13.238;2022-08-21T16:56:10;3.40;;;2.17;;
32329;SDS011;18807;52.434;13.238;2022-08-21T17:03:47;5.00;;;2.38;;
32329;SDS011;18807;52.434;13.238;2022-08-21T17:11:24;3.38;;;2.22;;
32329;SDS011;18807;52.434;13.238;2022-08-21T17:19:09;2.90;;;2.30;;
32329;SDS011;18807;52.434;13.238;2022-08-21T17:26:46;3.45;;;2.22;;
32329;SDS011;18807;52.434;13.238;2022-08-21T17:34:21;3.70;;;2.13;;
32329;SDS011;18807;52.434;13.238;2022-08-21T17:42:04;4.78;;;2.78;;
32329;SDS011;18807;52.434;13.238;2022-08-21T17:49:41;2.28;;;1.90;;
32329;SDS011;18807;52.434;13.238;2022-08-21T17:57:18;3.05;;;2.10;;
32329;SDS011;18807;52.434;13.238;2022-08-21T18:04:55;3.28;;;2.38;;
32329;SDS011;18807;52.434;13.238;2022-08-21T18:12:30;4.50;;;2.53;;
32329;SDS011;18807;52.434;13.238;2022-08-21T18:20:05;4.00;;;2.78;;
32329;SDS011;18807;52.434;13.238;2022-08-21T18:27:41;3.45;;;2.78;;
32329;SDS011;18807;52.434;13.238;2022-08-21T18:35:17;3.75;;;2.50;;
32329;SDS011;18807;52.434;13.238;2022-08-21T18:42:53;4.93;;;3.37;;
32329;SDS011;18807;52.434;13.238;2022-08-21T18:50:27;5.38;;;2.65;;
32329;SDS011;18807;52.434;13.238;2022-08-21T18:58:03;3.27;;;2.93;;
32329;SDS011;18807;52.434;13.238;2022-08-21T19:05:37;40.28;;;22.98;;
32329;SDS011;18807;52.434;13.238;2022-08-21T19:13:19;35.13;;;23.17;;
32329;SDS011;18807;52.434;13.238;2022-08-21T19:20:54;32.15;;;19.73;;
32329;SDS011;18807;52.434;13.238;2022-08-21T19:28:30;32.42;;;19.05;;
32329;SDS011;18807;52.434;13.238;2022-08-21T19:36:10;22.17;;;14.07;;
32329;SDS011;18807;52.434;13.238;2022-08-21T19:43:45;20.63;;;12.97;;
32329;SDS011;18807;52.434;13.238;2022-08-21T19:51:23;21.27;;;13.20;;
32329;SDS011;18807;52.434;13.238;2022-08-21T19:58:58;19.00;;;12.37;;
32329;SDS011;18807;52.434;13.238;2022-08-21T20:06:37;11.23;;;8.90;;
32329;SDS011;18807;52.434;13.238;2022-08-21T20:14:15;10.63;;;8.43;;
32329;SDS011;18807;52.434;13.238;2022-08-21T20:21:50;13.52;;;9.18;;
32329;SDS011;18807;52.434;13.238;2022-08-21T20:29:25;8.35;;;6.93;;
32329;SDS011;18807;52.434;13.238;2022-08-21T20:37:08;9.02;;;6.53;;
32329;SDS011;18807;52.434;13.238;2022-08-21T20:44:43;11.60;;;7.68;;
32329;SDS011;18807;52.434;13.238;2022-08-21T20:52:18;8.90;;;5.43;;
32329;SDS011;18807;52.434;13.238;2022-08-21T20:59:56;8.57;;;4.93;;
32329;SDS011;18807;52.434;13.238;2022-08-21T21:07:35;11.63;;;5.53;;
32329;SDS011;18807;52.434;13.238;2022-08-21T21:15:13;7.15;;;4.93;;
32329;SDS011;18807;52.434;13.238;2022-08-21T21:23:01;7.35;;;4.18;;
32329;SDS011;18807;52.434;13.238;2022-08-21T21:30:45;5.47;;;4.30;;
32329;SDS011;18807;52.434;13.238;2022-08-21T21:46:13;5.35;;;4.45;;
32329;SDS011;18807;52.434;13.238;2022-08-21T21:53:59;6.40;;;5.25;;
32329;SDS011;18807;52.434;13.238;2022-08-21T22:01:45;6.05;;;5.45;;
32329;SDS011;18807;52.434;13.238;2022-08-21T22:09:23;6.78;;;4.57;;
32329;SDS011;18807;52.434;13.238;2022-08-21T22:17:21;5.22;;;4.30;;
32329;SDS011;18807;52.434;13.238;2022-08-21T22:25:06;7.20;;;5.28;;
32329;SDS011;18807;52.434;13.238;2022-08-21T22:32:49;5.90;;;5.32;;
32329;SDS011;18807;52.434;13.238;2022-08-21T22:40:24;6.13;;;5.13;;
32329;SDS011;18807;52.434;13.238;2022-08-21T22:48:03;5.28;;;4.55;;
32329;SDS011;18807;52.434;13.238;2022-08-21T22:56:03;7.28;;;4.60;;
32329;SDS011;18807;52.434;13.238;2022-08-21T23:03:42;4.80;;;4.30;;
32329;SDS011;18807;52.434;13.238;2022-08-21T23:11:20;6.95;;;4.22;;
32329;SDS011;18807;52.434;13.238;2022-08-21T23:19:01;5.53;;;4.93;;
32329;SDS011;18807;52.434;13.238;2022-08-21T23:26:42;8.30;;;5.78;;
32329;SDS011;18807;52.434;13.238;2022-08-21T23:34:31;6.78;;;5.10;;
32329;SDS011;18807;52.434;13.238;2022-08-21T23:42:19;5.38;;;4.43;;
32329;SDS011;18807;52.434;13.238;2022-08-21T23:50:06;6.57;;;4.30;;
32329;SDS011;18807;52.434;13.238;2022-08-21T23:58:08;7.13;;;4.55;;
